Hauptseite
METAR-TAF:

METAR-TAF

Flughäfen :

Funafuti, Tuvalu

Flughafen Funafuti

Breite: 08-31S, Länge: 179-13E, Höhe: 1 m

Beobachtung

Neuester Wetterbericht von vor 11 Minuten, um 12:00 UTC
Windstille
Temperatur 27°C
Luftfeuchtigkeit 79%
Luftdruck 1011 hPa
Sichtweite 10 km oder mehr
Leicht bewölkt in der Höhe von 2000 ft

METAR: NGFU 211200Z 00000KT 9999 FEW020 27/23 Q1011

Zeit: 00:11 (12:11 UTC)

Prognose

Neuester Wetterbericht von vor 39 Minuten, um 11:32 UTC
Gültige Prognose vom 21 um 12 UTC bis 22 um 12 UTC
Wind 6 kt aus Ost
Sichtweite 10 km oder mehr
Leicht bewölkt in der Höhe von 1800 ft
Aufgelockert bewölkt in der Höhe von 5000 ft
Wahrscheinlichkeit 30% :
Zeitweise
vom 21 um 12 UTC bis 21 um 18 UTC
Sichtweite: 5000 m
Leicht bewölkt in der Höhe von 1800 ft, Kumulonimbus.
Gewitter, Regen

TAF: NGFU 211132Z 2112/2212 09006KT 9999 FEW018 SCT050 PROB30 TEMPO 2112/2118 5000 TSRA FEW018CB

Wetterbeobachtungen und Prognosen von mehr als 4000 Flughäfen (METAR und TAF Bericht).

Die verfügbaren Stationen werden durch gelbe und rote Markierungen auf der Karte dargestellt.

Führen Sie die Maus auf sie, um den Namen der Station zu sehen.

Darauf klicken, um die Beobachtung von Wetterbeobachtungen und Prognosen zu sehen.

Um die Karte zu ändern : klicken Sie auf den grünen Tasten mit einem schwarzen Kreuz Zum Vergrößern, auf den grünen Button mit einem Gedankenstrich zu verkleinern, oder auf die grünen Pfeile für benachbarte Karten.


METAR-TAF: